createdAt,value
2019-01-19T00:00:06.683Z,12.00
2019-01-19T00:01:06.837Z,8.90
2019-01-19T00:02:07.094Z,8.80
2019-01-19T00:03:07.163Z,9.70
2019-01-19T00:04:07.310Z,10.50
2019-01-19T00:05:10.543Z,8.00
2019-01-19T00:06:07.655Z,8.20
2019-01-19T00:07:07.815Z,9.10
2019-01-19T00:08:07.984Z,13.20
2019-01-19T00:09:08.135Z,9.60
2019-01-19T00:10:08.363Z,6.00
2019-01-19T00:11:08.455Z,10.00
2019-01-19T00:12:08.608Z,10.90
2019-01-19T00:13:08.797Z,10.90
2019-01-19T00:14:08.945Z,9.10
2019-01-19T00:15:09.104Z,9.10
2019-01-19T00:16:09.298Z,8.50
2019-01-19T00:17:09.424Z,10.40
2019-01-19T00:18:09.644Z,8.90
2019-01-19T00:19:09.728Z,8.10
2019-01-19T00:20:09.894Z,10.70
2019-01-19T00:21:10.074Z,7.80
2019-01-19T00:22:10.211Z,8.90
2019-01-19T00:23:10.390Z,10.30
2019-01-19T00:24:10.521Z,12.60
2019-01-19T00:25:10.708Z,8.20
2019-01-19T00:26:10.919Z,11.40
2019-01-19T00:27:11.065Z,10.10
2019-01-19T00:28:11.194Z,15.90
2019-01-19T00:29:11.321Z,9.30
2019-01-19T00:30:11.515Z,8.20
2019-01-19T00:31:11.674Z,10.30
2019-01-19T00:32:11.835Z,9.80
2019-01-19T00:33:12.000Z,12.00
2019-01-19T00:34:12.149Z,9.20
2019-01-19T00:35:17.835Z,11.40
2019-01-19T00:36:13.474Z,13.10
2019-01-19T00:37:12.641Z,11.20
2019-01-19T00:38:12.791Z,10.50
2019-01-19T00:39:12.922Z,11.30
2019-01-19T00:40:13.081Z,15.70
2019-01-19T00:41:13.277Z,10.70
2019-01-19T00:42:13.677Z,8.60
2019-01-19T00:43:13.680Z,11.60
2019-01-19T00:44:13.736Z,11.10
2019-01-19T00:45:13.874Z,12.60
2019-01-19T00:46:14.084Z,19.10
2019-01-19T00:47:14.227Z,10.60
2019-01-19T00:48:14.396Z,9.70
2019-01-19T00:49:14.531Z,16.10
2019-01-19T00:50:14.700Z,10.60
2019-01-19T00:51:14.921Z,9.40
2019-01-19T00:52:15.020Z,9.40
2019-01-19T00:53:15.186Z,9.30
2019-01-19T00:54:15.332Z,13.30
2019-01-19T00:55:15.491Z,11.70
2019-01-19T00:56:15.671Z,14.30
2019-01-19T00:57:15.801Z,9.90
2019-01-19T00:58:15.988Z,11.80
2019-01-19T00:59:16.208Z,10.80
2019-01-19T01:00:16.313Z,11.80
2019-01-19T01:01:16.502Z,13.80
2019-01-19T01:02:16.625Z,10.70
2019-01-19T01:03:16.783Z,13.60
2019-01-19T01:04:16.959Z,20.80
2019-01-19T01:05:17.125Z,11.30
2019-01-19T01:06:17.326Z,11.60
2019-01-19T01:07:17.451Z,14.30
2019-01-19T01:08:17.682Z,10.30
2019-01-19T01:09:17.790Z,12.30
2019-01-19T01:10:17.950Z,10.10
2019-01-19T01:11:18.321Z,9.40
2019-01-19T01:12:18.273Z,13.00
2019-01-19T01:13:18.419Z,9.60
2019-01-19T01:14:18.596Z,11.90
2019-01-19T01:15:18.795Z,11.70
2019-01-19T01:16:19.107Z,10.90
2019-01-19T01:17:19.099Z,12.00
2019-01-19T01:18:19.255Z,10.80
2019-01-19T01:19:19.433Z,13.50
2019-01-19T01:20:19.585Z,12.20
2019-01-19T01:21:19.773Z,15.60
2019-01-19T01:22:19.920Z,10.90
2019-01-19T01:23:20.071Z,15.80
2019-01-19T01:24:20.266Z,12.70
2019-01-19T01:25:20.372Z,13.20
2019-01-19T01:26:20.556Z,9.40
2019-01-19T01:27:20.711Z,9.90
2019-01-19T01:28:20.860Z,11.70
2019-01-19T01:29:21.037Z,15.50
2019-01-19T01:30:21.164Z,12.00
2019-01-19T01:31:21.360Z,9.50
2019-01-19T01:32:21.588Z,10.70
2019-01-19T01:33:21.653Z,13.90
2019-01-19T01:34:21.838Z,11.40
2019-01-19T01:35:21.979Z,15.20
2019-01-19T01:36:22.151Z,10.40
2019-01-19T01:37:22.332Z,11.30
2019-01-19T01:38:22.472Z,10.00
2019-01-19T01:39:22.653Z,14.80
2019-01-19T01:40:22.811Z,12.70
2019-01-19T01:41:23.015Z,15.00
2019-01-19T01:42:23.133Z,14.00
2019-01-19T01:43:23.275Z,12.80
2019-01-19T01:44:23.456Z,13.10
2019-01-19T01:45:23.593Z,9.70
2019-01-19T01:46:23.773Z,9.20
2019-01-19T01:47:23.918Z,12.40
2019-01-19T01:48:24.086Z,13.10
2019-01-19T01:49:24.376Z,14.80
2019-01-19T01:50:24.414Z,9.10
2019-01-19T01:51:24.603Z,13.40
2019-01-19T01:52:24.724Z,10.40
2019-01-19T01:53:24.893Z,8.80
2019-01-19T01:54:25.076Z,9.20
2019-01-19T01:55:25.283Z,12.90
2019-01-19T01:56:25.405Z,11.50
2019-01-19T01:57:25.680Z,10.50
2019-01-19T01:58:25.701Z,11.20
2019-01-19T01:59:25.868Z,8.60
2019-01-19T02:00:26.019Z,13.20
2019-01-19T02:01:26.196Z,9.00
2019-01-19T02:02:26.368Z,9.80
2019-01-19T02:03:26.484Z,9.60
2019-01-19T02:04:26.682Z,12.50
2019-01-19T02:05:26.892Z,8.90
2019-01-19T02:06:26.997Z,9.40
2019-01-19T02:07:27.158Z,10.70
2019-01-19T02:08:27.310Z,11.20
2019-01-19T02:09:27.473Z,14.70
2019-01-19T02:10:27.626Z,11.40
2019-01-19T02:11:27.807Z,9.60
2019-01-19T02:12:27.981Z,11.00
2019-01-19T02:13:28.156Z,8.50
2019-01-19T02:14:28.298Z,7.20
2019-01-19T02:15:28.452Z,10.70
2019-01-19T02:16:28.627Z,10.20
2019-01-19T02:17:28.819Z,9.60
2019-01-19T02:18:28.972Z,7.40
2019-01-19T02:19:29.147Z,10.30
2019-01-19T02:20:29.287Z,9.80
2019-01-19T02:21:29.450Z,10.70
2019-01-19T02:22:29.986Z,8.30
2019-01-19T02:23:29.806Z,10.80
2019-01-19T02:24:29.970Z,12.60
2019-01-19T02:25:30.092Z,8.80
2019-01-19T02:26:30.255Z,10.70
2019-01-19T02:27:30.448Z,10.10
2019-01-19T02:28:30.594Z,10.50
2019-01-19T02:29:30.764Z,10.00
2019-01-19T02:30:31.023Z,11.80
2019-01-19T02:31:31.070Z,11.60
2019-01-19T02:32:31.294Z,10.70
2019-01-19T02:33:31.428Z,7.60
2019-01-19T02:34:31.587Z,10.10
2019-01-19T02:35:31.725Z,11.70
2019-01-19T02:36:31.878Z,13.30
2019-01-19T02:37:32.056Z,13.00
2019-01-19T02:38:32.292Z,9.70
2019-01-19T02:39:32.383Z,10.40
2019-01-19T02:40:32.525Z,10.80
2019-01-19T02:41:32.686Z,11.30
2019-01-19T02:42:32.845Z,11.30
2019-01-19T02:43:33.013Z,11.70
2019-01-19T02:44:33.197Z,12.70
2019-01-19T02:45:33.346Z,12.50
2019-01-19T02:46:33.533Z,9.10
2019-01-19T02:47:33.646Z,12.00
2019-01-19T02:48:33.807Z,10.10
2019-01-19T02:49:33.992Z,10.20
2019-01-19T02:50:34.139Z,11.30
2019-01-19T02:51:34.291Z,11.20
2019-01-19T02:52:34.479Z,9.60
2019-01-19T02:53:34.762Z,10.00
2019-01-19T02:54:34.830Z,10.60
2019-01-19T02:55:34.989Z,8.70
2019-01-19T02:56:35.117Z,10.40
2019-01-19T02:57:35.314Z,13.90
2019-01-19T02:58:35.445Z,9.60
2019-01-19T02:59:35.618Z,11.50
2019-01-19T03:00:35.761Z,10.90
2019-01-19T03:01:35.932Z,11.80
2019-01-19T03:02:36.107Z,10.20
2019-01-19T03:03:36.411Z,14.10
2019-01-19T03:04:36.404Z,14.70
2019-01-19T03:05:36.555Z,13.20
2019-01-19T03:06:36.717Z,12.30
2019-01-19T03:07:36.897Z,10.20
2019-01-19T03:08:37.054Z,12.50
2019-01-19T03:09:37.236Z,8.00
2019-01-19T03:10:37.356Z,9.90
2019-01-19T03:11:37.599Z,12.30
2019-01-19T03:12:37.707Z,10.80
2019-01-19T03:13:37.856Z,10.90
2019-01-19T03:14:38.025Z,11.70
2019-01-19T03:15:38.161Z,11.90
2019-01-19T03:16:38.321Z,13.10
2019-01-19T03:17:38.516Z,12.60
2019-01-19T03:18:38.668Z,10.80
2019-01-19T03:19:38.862Z,13.00
2019-01-19T03:20:38.986Z,9.80
2019-01-19T03:21:39.139Z,12.70
2019-01-19T03:22:39.326Z,10.70
2019-01-19T03:23:39.479Z,15.20
2019-01-19T03:24:39.658Z,16.20
2019-01-19T03:25:39.819Z,10.40
2019-01-19T03:26:39.982Z,12.20
2019-01-19T03:27:40.204Z,7.40
2019-01-19T03:28:40.333Z,8.70
2019-01-19T03:29:40.480Z,8.50
2019-01-19T03:30:40.651Z,13.80
2019-01-19T03:31:40.795Z,8.90
2019-01-19T03:32:40.977Z,13.60
2019-01-19T03:33:41.098Z,10.00
2019-01-19T03:34:41.290Z,12.40
2019-01-19T03:35:41.468Z,11.20
2019-01-19T03:36:41.720Z,9.70
2019-01-19T03:37:41.775Z,10.50
2019-01-19T03:38:41.905Z,9.50
2019-01-19T03:39:42.091Z,10.70
2019-01-19T03:40:42.255Z,9.60
2019-01-19T03:41:42.400Z,12.30
2019-01-19T03:42:42.564Z,10.80
2019-01-19T03:43:42.717Z,10.00
2019-01-19T03:44:42.971Z,10.40
2019-01-19T03:45:43.073Z,8.40
2019-01-19T03:46:43.204Z,10.10
2019-01-19T03:47:43.375Z,10.50
2019-01-19T03:48:43.515Z,11.40
2019-01-19T03:49:43.671Z,11.90
2019-01-19T03:50:43.884Z,16.90
2019-01-19T03:51:44.010Z,16.20
2019-01-19T03:52:44.253Z,11.20
2019-01-19T03:53:44.312Z,10.00
2019-01-19T03:54:44.465Z,20.50
2019-01-19T03:55:44.676Z,12.40
2019-01-19T03:56:44.818Z,13.50
2019-01-19T03:57:44.986Z,14.10
2019-01-19T03:58:45.368Z,12.50
2019-01-19T03:59:45.307Z,13.40
2019-01-19T04:00:45.509Z,12.90
2019-01-19T04:01:45.598Z,14.90
2019-01-19T04:02:45.795Z,12.80
2019-01-19T04:03:45.955Z,12.70
2019-01-19T04:04:46.100Z,11.80
2019-01-19T04:05:46.337Z,12.40
2019-01-19T04:06:46.408Z,14.00
2019-01-19T04:07:46.608Z,16.40
2019-01-19T04:08:46.783Z,14.60
2019-01-19T04:09:47.538Z,16.20
2019-01-19T04:10:47.407Z,16.90
2019-01-19T04:11:47.225Z,15.50
2019-01-19T04:12:47.405Z,17.80
2019-01-19T04:13:47.570Z,17.90
2019-01-19T04:14:47.734Z,17.90
2019-01-19T04:15:47.919Z,16.00
2019-01-19T04:16:48.066Z,17.00
2019-01-19T04:17:48.297Z,15.20
2019-01-19T04:18:48.370Z,12.60
2019-01-19T04:19:48.532Z,16.00
2019-01-19T04:20:48.709Z,13.20
2019-01-19T04:21:48.867Z,17.30
2019-01-19T04:22:49.012Z,12.50
2019-01-19T04:23:49.192Z,12.60
2019-01-19T04:24:49.380Z,17.40
2019-01-19T04:25:49.627Z,12.80
2019-01-19T04:26:49.693Z,13.80
2019-01-19T04:27:49.835Z,13.90
2019-01-19T04:28:50.028Z,13.80
2019-01-19T04:29:50.192Z,18.10
2019-01-19T04:30:50.381Z,14.60
2019-01-19T04:31:50.543Z,13.80
2019-01-19T04:32:50.725Z,14.00
2019-01-19T04:33:50.881Z,13.50
2019-01-19T04:34:50.987Z,15.70
2019-01-19T04:35:51.172Z,14.10
2019-01-19T04:36:51.331Z,15.60
2019-01-19T04:37:51.461Z,15.60
2019-01-19T04:38:51.648Z,10.40
2019-01-19T04:39:51.779Z,11.10
2019-01-19T04:40:51.990Z,12.90
2019-01-19T04:41:52.169Z,9.80
2019-01-19T04:42:52.441Z,11.50
2019-01-19T04:43:52.467Z,11.10
2019-01-19T04:44:52.590Z,9.60
2019-01-19T04:45:52.786Z,10.10
2019-01-19T04:46:52.956Z,9.70
2019-01-19T04:47:53.105Z,10.30
2019-01-19T04:48:53.281Z,11.50
2019-01-19T04:49:53.446Z,11.60
2019-01-19T04:50:53.690Z,14.10
2019-01-19T04:51:53.817Z,13.70
2019-01-19T04:52:53.909Z,11.50
2019-01-19T04:53:55.606Z,13.50
2019-01-19T04:54:54.232Z,13.30
2019-01-19T04:55:54.393Z,14.40
2019-01-19T04:56:54.576Z,13.40
2019-01-19T04:57:54.723Z,14.90
2019-01-19T04:58:55.041Z,15.10
2019-01-19T04:59:55.045Z,15.50
2019-01-19T05:00:55.208Z,17.00
2019-01-19T05:01:55.391Z,12.10
2019-01-19T05:02:55.529Z,14.40
2019-01-19T05:03:55.712Z,14.40
2019-01-19T05:04:55.851Z,14.30
2019-01-19T05:05:56.026Z,15.20
2019-01-19T05:06:56.244Z,11.50
2019-01-19T05:07:57.037Z,13.10
2019-01-19T05:08:56.501Z,18.60
2019-01-19T05:09:56.644Z,14.10
2019-01-19T05:10:57.133Z,15.90
2019-01-19T05:11:56.977Z,12.10
2019-01-19T05:12:57.122Z,10.90
2019-01-19T05:13:57.304Z,16.90
2019-01-19T05:14:57.513Z,16.80
2019-01-19T05:15:57.606Z,14.80
2019-01-19T05:16:57.764Z,15.10
2019-01-19T05:17:57.933Z,16.40
2019-01-19T05:18:58.092Z,19.50
2019-01-19T05:19:58.252Z,16.80
2019-01-19T05:20:58.428Z,16.70
2019-01-19T05:21:58.576Z,17.00
2019-01-19T05:22:58.772Z,15.80
2019-01-19T05:23:58.993Z,16.70
2019-01-19T05:24:59.058Z,15.40
2019-01-19T05:25:59.234Z,17.20
2019-01-19T05:26:59.378Z,16.60
2019-01-19T05:27:59.547Z,19.60
2019-01-19T05:28:59.720Z,17.10
2019-01-19T05:29:59.846Z,15.60
2019-01-19T05:31:00.039Z,17.10
2019-01-19T05:32:00.312Z,14.70
2019-01-19T05:33:00.351Z,16.30
2019-01-19T05:34:00.522Z,20.60
2019-01-19T05:35:00.686Z,17.20
2019-01-19T05:36:00.877Z,16.80
2019-01-19T05:37:01.046Z,16.70
2019-01-19T05:38:01.946Z,13.70
2019-01-19T05:39:01.368Z,17.20
2019-01-19T05:40:01.601Z,20.50
2019-01-19T05:41:01.660Z,24.40
2019-01-19T05:42:01.857Z,16.80
2019-01-19T05:43:01.994Z,19.80
2019-01-19T05:44:02.163Z,16.70
2019-01-19T05:45:02.313Z,17.40
2019-01-19T05:46:02.468Z,19.70
2019-01-19T05:47:02.647Z,21.70
2019-01-19T05:48:02.857Z,17.40
2019-01-19T05:49:02.980Z,21.90
2019-01-19T05:50:03.120Z,16.70
2019-01-19T05:51:03.283Z,19.50
2019-01-19T05:52:03.439Z,20.70
2019-01-19T05:53:03.614Z,18.50
2019-01-19T05:54:03.767Z,20.30
2019-01-19T05:55:03.918Z,19.60
2019-01-19T05:56:04.118Z,20.70
2019-01-19T05:57:04.317Z,19.40
2019-01-19T05:58:04.467Z,19.40
2019-01-19T05:59:04.618Z,16.20
2019-01-19T06:00:04.778Z,19.80
2019-01-19T06:01:04.940Z,22.80
2019-01-19T06:02:05.119Z,17.90
2019-01-19T06:03:05.275Z,23.50
2019-01-19T06:04:05.424Z,20.10
2019-01-19T06:05:05.690Z,21.50
2019-01-19T06:06:05.741Z,17.20
2019-01-19T06:07:05.920Z,20.50
2019-01-19T06:08:06.065Z,20.70
2019-01-19T06:09:06.238Z,18.60
2019-01-19T06:10:06.383Z,17.60
2019-01-19T06:11:06.559Z,20.40
2019-01-19T06:12:06.727Z,18.50
2019-01-19T06:13:07.001Z,19.30
2019-01-19T06:14:07.033Z,19.00
2019-01-19T06:15:07.187Z,20.10
2019-01-19T06:16:07.354Z,18.40
2019-01-19T06:17:07.520Z,25.80
2019-01-19T06:18:07.668Z,22.20
2019-01-19T06:19:07.840Z,20.20
2019-01-19T06:20:07.991Z,19.00
2019-01-19T06:21:08.190Z,19.20
2019-01-19T06:22:08.317Z,17.00
2019-01-19T06:23:08.461Z,20.40
2019-01-19T06:24:08.660Z,22.10
2019-01-19T06:25:08.769Z,17.60
2019-01-19T06:26:08.961Z,17.10
2019-01-19T06:27:09.120Z,18.10
2019-01-19T06:28:09.263Z,17.80
2019-01-19T06:29:09.465Z,18.20
2019-01-19T06:30:09.548Z,16.90
2019-01-19T06:31:09.756Z,18.60
2019-01-19T06:32:09.924Z,19.40
2019-01-19T06:33:10.082Z,20.40
2019-01-19T06:34:10.235Z,18.40
2019-01-19T06:35:10.418Z,16.20
2019-01-19T06:36:10.589Z,18.20
2019-01-19T06:37:10.758Z,19.90
2019-01-19T06:38:11.004Z,18.90
2019-01-19T06:39:11.097Z,16.10
2019-01-19T06:40:11.277Z,18.90
2019-01-19T06:41:11.417Z,17.70
2019-01-19T06:42:11.613Z,21.20
2019-01-19T06:43:11.776Z,18.50
2019-01-19T06:44:11.950Z,16.30
2019-01-19T06:45:12.114Z,17.70
2019-01-19T06:46:12.392Z,16.50
2019-01-19T06:47:12.438Z,14.80
2019-01-19T06:48:12.596Z,16.90
2019-01-19T06:49:12.760Z,16.50
2019-01-19T06:50:12.940Z,19.70
2019-01-19T06:51:13.107Z,20.70
2019-01-19T06:52:13.255Z,17.80
2019-01-19T06:53:13.400Z,15.80
2019-01-19T06:54:13.655Z,17.20
2019-01-19T06:55:13.742Z,17.80
2019-01-19T06:56:13.902Z,19.60
2019-01-19T06:57:14.059Z,19.00
2019-01-19T06:58:14.198Z,19.00
2019-01-19T06:59:17.516Z,17.20
2019-01-19T07:00:14.551Z,20.20
2019-01-19T07:01:14.709Z,18.50
2019-01-19T07:02:14.927Z,17.50
2019-01-19T07:03:15.000Z,21.00
2019-01-19T07:04:15.153Z,19.50
2019-01-19T07:05:15.340Z,19.60
2019-01-19T07:06:15.503Z,16.10
2019-01-19T07:07:15.672Z,19.00
2019-01-19T07:08:15.807Z,18.20
2019-01-19T07:09:15.971Z,15.60
2019-01-19T07:10:16.167Z,18.50
2019-01-19T07:11:16.388Z,18.20
2019-01-19T07:12:16.483Z,20.70
2019-01-19T07:13:16.627Z,23.10
2019-01-19T07:14:16.786Z,19.80
2019-01-19T07:15:17.175Z,19.00
2019-01-19T07:16:17.124Z,17.60
2019-01-19T07:17:17.301Z,18.40
2019-01-19T07:18:17.478Z,15.00
2019-01-19T07:19:17.746Z,17.80
2019-01-19T07:20:17.775Z,17.60
2019-01-19T07:21:17.941Z,19.80
2019-01-19T07:22:18.120Z,20.10
2019-01-19T07:23:18.259Z,19.30
2019-01-19T07:24:18.419Z,19.20
2019-01-19T07:25:18.592Z,19.50
2019-01-19T07:26:18.745Z,19.60
2019-01-19T07:27:19.042Z,23.00
2019-01-19T07:28:19.071Z,21.70
2019-01-19T07:29:19.231Z,16.60
2019-01-19T07:30:19.413Z,21.30
2019-01-19T07:31:19.551Z,17.90
2019-01-19T07:32:19.714Z,20.50
2019-01-19T07:33:19.900Z,23.20
2019-01-19T07:34:20.062Z,19.30
2019-01-19T07:35:20.284Z,22.70
2019-01-19T07:36:20.361Z,17.40
2019-01-19T07:37:20.512Z,23.00
2019-01-19T07:38:20.701Z,20.00
2019-01-19T07:39:20.905Z,21.10
2019-01-19T07:40:21.055Z,26.90
2019-01-19T07:41:21.202Z,19.80
2019-01-19T07:42:21.356Z,21.60
2019-01-19T07:43:21.551Z,21.90
2019-01-19T07:44:21.708Z,22.10
2019-01-19T07:45:21.873Z,25.80
2019-01-19T07:46:22.021Z,22.80
2019-01-19T07:47:22.180Z,22.20
2019-01-19T07:48:22.359Z,25.40
2019-01-19T07:49:22.507Z,21.50
2019-01-19T07:50:22.683Z,22.10
2019-01-19T07:51:22.907Z,19.20
2019-01-19T07:52:23.105Z,21.50
2019-01-19T07:53:23.188Z,24.20
2019-01-19T07:54:23.316Z,23.90
2019-01-19T07:55:23.508Z,25.70
2019-01-19T07:56:24.846Z,25.40
2019-01-19T07:57:30.964Z,34.40
2019-01-19T07:58:24.997Z,35.80
2019-01-19T07:59:24.138Z,30.50
2019-01-19T08:00:24.468Z,27.50
2019-01-19T08:01:24.457Z,28.60
2019-01-19T08:02:24.632Z,28.20
2019-01-19T08:03:24.801Z,27.40
2019-01-19T08:04:24.952Z,30.10
2019-01-19T08:05:25.120Z,26.50
2019-01-19T08:06:25.259Z,32.10
2019-01-19T08:07:25.452Z,29.60
2019-01-19T08:08:26.884Z,31.00
2019-01-19T08:09:25.745Z,30.60
2019-01-19T08:10:25.928Z,30.60
2019-01-19T08:11:26.054Z,29.60
2019-01-19T08:12:26.240Z,35.50
2019-01-19T08:13:26.409Z,25.70
2019-01-19T08:14:26.555Z,28.90
2019-01-19T08:15:26.745Z,30.20
2019-01-19T08:16:27.106Z,29.20
2019-01-19T08:17:26.931Z,34.70
2019-01-19T08:18:27.125Z,32.00
2019-01-19T08:19:27.312Z,27.80
2019-01-19T08:20:27.427Z,29.70
2019-01-19T08:21:27.575Z,32.80
2019-01-19T08:22:27.720Z,29.90
2019-01-19T08:23:27.910Z,29.80
2019-01-19T08:24:28.095Z,29.30
2019-01-19T08:25:28.331Z,33.90
2019-01-19T08:26:28.419Z,32.50
2019-01-19T08:27:28.581Z,29.60
2019-01-19T08:28:28.771Z,34.70
2019-01-19T08:29:28.915Z,35.30
2019-01-19T08:30:29.114Z,32.00
2019-01-19T08:31:29.236Z,30.00
2019-01-19T08:32:29.428Z,30.00
2019-01-19T08:33:29.681Z,33.30
2019-01-19T08:34:29.716Z,29.10
2019-01-19T08:35:29.891Z,33.50
2019-01-19T08:36:30.036Z,30.20
2019-01-19T08:37:30.186Z,30.00
2019-01-19T08:38:30.352Z,35.50
2019-01-19T08:39:30.513Z,29.20
2019-01-19T08:40:30.689Z,35.00
2019-01-19T08:41:30.944Z,36.90
2019-01-19T08:42:30.978Z,29.60
2019-01-19T08:43:31.171Z,34.90
2019-01-19T08:44:31.341Z,31.60
2019-01-19T08:45:31.494Z,33.00
2019-01-19T08:46:31.670Z,33.40
2019-01-19T08:47:31.837Z,33.80
2019-01-19T08:48:32.009Z,34.70
2019-01-19T08:49:32.169Z,35.60
2019-01-19T08:50:32.298Z,34.80
2019-01-19T08:51:32.489Z,36.60
2019-01-19T08:52:32.636Z,34.20
2019-01-19T08:53:32.821Z,34.60
2019-01-19T08:54:33.184Z,34.70
2019-01-19T08:55:33.120Z,34.90
2019-01-19T08:56:33.288Z,35.40
2019-01-19T08:57:33.517Z,31.20
2019-01-19T08:58:33.600Z,30.10
2019-01-19T08:59:33.760Z,30.10
2019-01-19T09:00:33.904Z,32.00
2019-01-19T09:01:34.095Z,36.80
2019-01-19T09:02:34.258Z,29.70
2019-01-19T09:03:34.442Z,34.80
2019-01-19T09:04:34.559Z,30.30
2019-01-19T09:05:34.765Z,35.10
2019-01-19T09:06:34.995Z,32.60
2019-01-19T09:07:35.053Z,31.30
2019-01-19T09:08:35.247Z,32.40
2019-01-19T09:09:35.374Z,29.00
2019-01-19T09:10:35.535Z,36.50
2019-01-19T09:11:35.696Z,33.10
2019-01-19T09:12:35.875Z,35.10
2019-01-19T09:13:36.055Z,33.40
2019-01-19T09:14:36.314Z,34.90
2019-01-19T09:15:36.347Z,37.50
2019-01-19T09:16:39.616Z,35.30
2019-01-19T09:17:37.684Z,33.40
2019-01-19T09:18:36.859Z,32.20
2019-01-19T09:19:36.998Z,32.40
2019-01-19T09:20:37.159Z,35.20
2019-01-19T09:21:37.342Z,40.20
2019-01-19T09:22:37.521Z,35.10
2019-01-19T09:23:37.654Z,35.50
2019-01-19T09:24:37.793Z,33.30
2019-01-19T09:25:37.952Z,33.30
2019-01-19T09:26:38.145Z,35.10
2019-01-19T09:27:38.269Z,33.20
2019-01-19T09:28:38.453Z,34.10
2019-01-19T09:29:38.594Z,33.20
2019-01-19T09:30:38.792Z,35.70
2019-01-19T09:31:38.915Z,34.50
2019-01-19T09:32:39.063Z,34.90
2019-01-19T09:33:39.239Z,32.30
2019-01-19T09:34:39.381Z,31.00
2019-01-19T09:35:39.559Z,36.00
2019-01-19T09:36:39.743Z,29.80
2019-01-19T09:37:40.976Z,33.50
2019-01-19T09:38:40.100Z,31.60
2019-01-19T09:39:40.255Z,30.30
2019-01-19T09:40:40.372Z,33.40
2019-01-19T09:41:40.572Z,33.50
2019-01-19T09:42:40.691Z,29.20
2019-01-19T09:43:40.897Z,36.50
2019-01-19T09:44:41.037Z,27.20
2019-01-19T09:45:41.217Z,32.40
2019-01-19T09:46:41.372Z,36.80
2019-01-19T09:47:41.625Z,31.10
2019-01-19T09:48:41.674Z,31.60
2019-01-19T09:49:41.805Z,31.60
2019-01-19T09:50:41.982Z,30.90
2019-01-19T09:51:42.183Z,27.10
2019-01-19T09:52:42.318Z,30.00
2019-01-19T09:53:42.472Z,33.30
2019-01-19T09:54:42.651Z,33.80
2019-01-19T09:55:42.926Z,30.50
2019-01-19T09:56:42.994Z,31.60
2019-01-19T09:57:43.135Z,29.90
2019-01-19T09:58:43.294Z,29.90
2019-01-19T09:59:43.475Z,30.60
2019-01-19T10:00:45.771Z,33.00
2019-01-19T10:01:43.809Z,31.40
2019-01-19T10:02:43.949Z,34.70
2019-01-19T10:03:44.172Z,32.80
2019-01-19T10:04:44.263Z,31.00
2019-01-19T10:05:44.404Z,29.50
2019-01-19T10:06:44.576Z,31.60
2019-01-19T10:07:48.431Z,31.00
2019-01-19T10:08:44.913Z,27.80
2019-01-19T10:09:45.143Z,28.90
2019-01-19T10:10:45.222Z,29.60
2019-01-19T10:11:45.476Z,32.00
2019-01-19T10:12:45.514Z,28.00
2019-01-19T10:13:45.690Z,29.70
2019-01-19T10:14:45.873Z,29.00
2019-01-19T10:15:46.018Z,33.50
2019-01-19T10:16:46.208Z,29.00
2019-01-19T10:17:46.352Z,31.20
2019-01-19T10:18:46.488Z,32.20
2019-01-19T10:19:46.708Z,30.10
2019-01-19T10:20:46.889Z,30.20
2019-01-19T10:21:47.026Z,27.30
2019-01-19T10:22:47.143Z,30.50
2019-01-19T10:23:47.334Z,29.10
2019-01-19T10:24:47.503Z,28.00
2019-01-19T10:25:47.629Z,28.60
2019-01-19T10:26:47.807Z,25.70
2019-01-19T10:27:47.957Z,28.30
2019-01-19T10:28:48.232Z,28.20
2019-01-19T10:29:48.284Z,28.20
2019-01-19T10:30:48.428Z,30.40
2019-01-19T10:31:48.614Z,27.70
2019-01-19T10:32:48.993Z,26.40
2019-01-19T10:33:48.910Z,30.20
2019-01-19T10:34:49.071Z,28.00
2019-01-19T10:35:49.238Z,28.80
2019-01-19T10:36:49.505Z,30.00
2019-01-19T10:37:55.743Z,29.20
2019-01-19T10:38:50.710Z,30.00
2019-01-19T10:39:49.870Z,27.40
2019-01-19T10:40:50.033Z,32.70
2019-01-19T10:41:50.223Z,28.00
2019-01-19T10:42:50.353Z,30.30
2019-01-19T10:43:50.517Z,26.90
2019-01-19T10:44:50.740Z,29.00
2019-01-19T10:45:50.800Z,32.40
2019-01-19T10:46:51.007Z,27.70
2019-01-19T10:47:51.146Z,32.10
2019-01-19T10:48:51.303Z,31.40
2019-01-19T10:49:51.477Z,31.80
2019-01-19T10:50:51.626Z,28.00
2019-01-19T10:51:51.777Z,29.30
2019-01-19T10:52:52.002Z,27.80
2019-01-19T10:53:52.121Z,28.50
2019-01-19T10:54:52.305Z,31.00
2019-01-19T10:55:53.199Z,29.10
2019-01-19T10:56:52.646Z,29.50
2019-01-19T10:57:52.771Z,33.20
2019-01-19T10:58:52.946Z,34.60
2019-01-19T10:59:53.166Z,33.40
2019-01-19T11:00:53.286Z,28.90
2019-01-19T11:01:53.467Z,28.10
2019-01-19T11:02:53.606Z,31.20
2019-01-19T11:03:53.780Z,30.40
2019-01-19T11:04:53.967Z,27.00
2019-01-19T11:05:54.102Z,27.70
2019-01-19T11:06:54.263Z,29.00
2019-01-19T11:07:54.455Z,26.60
2019-01-19T11:08:54.573Z,32.90
2019-01-19T11:09:54.902Z,28.40
2019-01-19T11:10:54.904Z,26.80
2019-01-19T11:11:55.064Z,27.50
2019-01-19T11:12:55.232Z,30.30
2019-01-19T11:13:55.545Z,27.70
2019-01-19T11:14:55.584Z,31.20
2019-01-19T11:15:55.717Z,28.20
2019-01-19T11:16:55.879Z,30.70
2019-01-19T11:17:56.129Z,31.70
2019-01-19T11:18:56.170Z,29.00
2019-01-19T11:19:56.366Z,26.60
2019-01-19T11:20:56.511Z,32.90
2019-01-19T11:21:56.670Z,29.30
2019-01-19T11:22:56.858Z,28.70
2019-01-19T11:23:56.994Z,25.70
2019-01-19T11:24:57.222Z,25.40
2019-01-19T11:25:57.352Z,26.80
2019-01-19T11:26:57.477Z,28.70
2019-01-19T11:27:57.641Z,27.10
2019-01-19T11:28:57.785Z,29.00
2019-01-19T11:29:57.960Z,23.60
2019-01-19T11:30:58.087Z,26.50
2019-01-19T11:31:58.276Z,23.40
2019-01-19T11:32:58.482Z,27.40
2019-01-19T11:33:58.650Z,26.90
2019-01-19T11:34:58.834Z,26.90
2019-01-19T11:35:58.970Z,26.30
2019-01-19T11:36:59.092Z,30.30
2019-01-19T11:37:59.292Z,30.70
2019-01-19T11:38:59.427Z,25.90
2019-01-19T11:39:59.607Z,24.50
2019-01-19T11:40:59.749Z,27.40
2019-01-19T11:41:59.914Z,27.70
2019-01-19T11:43:00.207Z,28.10
2019-01-19T11:44:00.250Z,28.50
2019-01-19T11:45:00.427Z,24.20
2019-01-19T11:46:00.570Z,30.20
2019-01-19T11:47:00.716Z,24.90
2019-01-19T11:48:00.916Z,28.20
2019-01-19T11:49:01.060Z,28.40
2019-01-19T11:50:01.240Z,27.20
2019-01-19T11:51:01.492Z,25.50
2019-01-19T11:52:01.533Z,27.80
2019-01-19T11:53:01.795Z,29.80
2019-01-19T11:54:01.867Z,26.60
2019-01-19T11:55:02.038Z,25.90
2019-01-19T11:56:02.190Z,28.20
2019-01-19T11:57:02.333Z,27.70
2019-01-19T11:58:02.517Z,23.70
2019-01-19T11:59:02.746Z,27.80
2019-01-19T12:00:02.875Z,25.60
2019-01-19T12:01:03.014Z,26.50
2019-01-19T12:02:03.181Z,28.10
2019-01-19T12:03:03.356Z,29.50
2019-01-19T12:04:03.485Z,23.40
2019-01-19T12:05:03.666Z,25.80
2019-01-19T12:06:03.846Z,25.50
2019-01-19T12:07:04.046Z,27.90
2019-01-19T12:08:04.170Z,28.80
2019-01-19T12:09:04.295Z,27.10
2019-01-19T12:10:04.475Z,26.70
2019-01-19T12:11:04.674Z,22.80
2019-01-19T12:12:04.849Z,24.60
2019-01-19T12:13:05.236Z,27.80
2019-01-19T12:14:05.141Z,30.60
2019-01-19T12:15:05.329Z,23.60
2019-01-19T12:16:05.556Z,28.10
2019-01-19T12:17:05.624Z,23.90
2019-01-19T12:18:05.814Z,26.80
2019-01-19T12:19:05.943Z,29.80
2019-01-19T12:20:06.107Z,25.80
2019-01-19T12:21:06.266Z,25.30
2019-01-19T12:22:06.434Z,25.10
2019-01-19T12:23:06.619Z,24.20
2019-01-19T12:24:06.887Z,26.60
2019-01-19T12:25:06.916Z,24.60
2019-01-19T12:26:07.072Z,26.80
2019-01-19T12:27:07.224Z,27.10
2019-01-19T12:28:07.432Z,28.10
2019-01-19T12:29:07.546Z,24.30
2019-01-19T12:30:07.703Z,26.30
2019-01-19T12:31:07.893Z,25.30
2019-01-19T12:32:08.132Z,24.80
2019-01-19T12:33:08.242Z,26.40
2019-01-19T12:34:08.345Z,26.90
2019-01-19T12:35:08.552Z,25.60
2019-01-19T12:36:08.685Z,23.60
2019-01-19T12:37:08.814Z,26.40
2019-01-19T12:38:09.001Z,28.60
2019-01-19T12:39:09.172Z,28.30
2019-01-19T12:40:09.391Z,27.10
2019-01-19T12:41:09.487Z,27.20
2019-01-19T12:42:09.639Z,27.30
2019-01-19T12:43:09.801Z,27.10
2019-01-19T12:44:09.960Z,27.80
2019-01-19T12:45:10.173Z,23.80
2019-01-19T12:46:10.315Z,30.40
2019-01-19T12:47:10.463Z,25.60
2019-01-19T12:48:11.749Z,27.70
2019-01-19T12:49:10.758Z,27.70
2019-01-19T12:50:10.996Z,28.90
2019-01-19T12:51:11.148Z,30.40
2019-01-19T12:52:11.273Z,31.20
2019-01-19T12:53:11.449Z,27.70
2019-01-19T12:54:11.585Z,24.50
2019-01-19T12:55:11.742Z,27.00
2019-01-19T12:56:12.017Z,26.70